sensor_id;sensor_type;location;lat;lon;timestamp;P1;durP1;ratioP1;P2;durP2;ratioP2
24644;SDS011;12780;45.502;9.146;2023-06-26T00:01:25;7.57;;;4.18;;
24644;SDS011;12780;45.502;9.146;2023-06-26T00:03:54;7.47;;;4.28;;
24644;SDS011;12780;45.502;9.146;2023-06-26T00:06:20;8.50;;;4.75;;
24644;SDS011;12780;45.502;9.146;2023-06-26T00:08:49;8.43;;;4.90;;
24644;SDS011;12780;45.502;9.146;2023-06-26T00:11:15;8.25;;;4.72;;
24644;SDS011;12780;45.502;9.146;2023-06-26T00:13:41;8.75;;;4.25;;
24644;SDS011;12780;45.502;9.146;2023-06-26T00:16:07;6.47;;;4.80;;
24644;SDS011;12780;45.502;9.146;2023-06-26T00:18:33;11.80;;;4.70;;
24644;SDS011;12780;45.502;9.146;2023-06-26T00:20:59;7.72;;;4.90;;
24644;SDS011;12780;45.502;9.146;2023-06-26T00:23:25;7.80;;;4.82;;
24644;SDS011;12780;45.502;9.146;2023-06-26T00:25:52;9.15;;;5.00;;
24644;SDS011;12780;45.502;9.146;2023-06-26T00:28:18;10.38;;;5.78;;
24644;SDS011;12780;45.502;9.146;2023-06-26T00:30:44;13.40;;;5.45;;
24644;SDS011;12780;45.502;9.146;2023-06-26T00:33:10;14.60;;;5.38;;
24644;SDS011;12780;45.502;9.146;2023-06-26T00:35:36;7.68;;;5.53;;
24644;SDS011;12780;45.502;9.146;2023-06-26T00:38:02;11.73;;;5.38;;
24644;SDS011;12780;45.502;9.146;2023-06-26T00:40:28;10.73;;;5.28;;
24644;SDS011;12780;45.502;9.146;2023-06-26T00:42:54;10.18;;;5.22;;
24644;SDS011;12780;45.502;9.146;2023-06-26T00:45:20;11.43;;;5.03;;
24644;SDS011;12780;45.502;9.146;2023-06-26T00:47:46;8.10;;;4.93;;
24644;SDS011;12780;45.502;9.146;2023-06-26T00:50:13;11.70;;;4.78;;
24644;SDS011;12780;45.502;9.146;2023-06-26T00:52:40;8.18;;;5.15;;
24644;SDS011;12780;45.502;9.146;2023-06-26T00:55:07;13.32;;;5.32;;
24644;SDS011;12780;45.502;9.146;2023-06-26T00:57:33;10.23;;;5.22;;
24644;SDS011;12780;45.502;9.146;2023-06-26T00:59:59;11.98;;;5.35;;
24644;SDS011;12780;45.502;9.146;2023-06-26T01:02:26;7.25;;;4.78;;
24644;SDS011;12780;45.502;9.146;2023-06-26T01:04:58;8.38;;;5.30;;
24644;SDS011;12780;45.502;9.146;2023-06-26T01:07:24;9.30;;;4.88;;
24644;SDS011;12780;45.502;9.146;2023-06-26T01:09:51;8.55;;;4.97;;
24644;SDS011;12780;45.502;9.146;2023-06-26T01:12:17;7.07;;;4.57;;
24644;SDS011;12780;45.502;9.146;2023-06-26T01:14:43;8.55;;;4.70;;
24644;SDS011;12780;45.502;9.146;2023-06-26T01:17:09;11.52;;;4.57;;
24644;SDS011;12780;45.502;9.146;2023-06-26T01:19:40;6.72;;;4.63;;
24644;SDS011;12780;45.502;9.146;2023-06-26T01:22:14;8.60;;;4.75;;
24644;SDS011;12780;45.502;9.146;2023-06-26T01:24:53;8.20;;;4.50;;
24644;SDS011;12780;45.502;9.146;2023-06-26T01:27:20;12.93;;;4.68;;
24644;SDS011;12780;45.502;9.146;2023-06-26T01:29:47;7.93;;;4.93;;
24644;SDS011;12780;45.502;9.146;2023-06-26T01:32:15;9.23;;;4.40;;
24644;SDS011;12780;45.502;9.146;2023-06-26T01:34:41;8.88;;;4.80;;
24644;SDS011;12780;45.502;9.146;2023-06-26T01:37:07;7.93;;;4.80;;
24644;SDS011;12780;45.502;9.146;2023-06-26T01:39:33;12.00;;;5.20;;
24644;SDS011;12780;45.502;9.146;2023-06-26T01:41:59;9.43;;;5.13;;
24644;SDS011;12780;45.502;9.146;2023-06-26T01:44:27;9.98;;;4.28;;
24644;SDS011;12780;45.502;9.146;2023-06-26T01:52:20;9.25;;;4.22;;
24644;SDS011;12780;45.502;9.146;2023-06-26T01:54:58;9.88;;;4.65;;
24644;SDS011;12780;45.502;9.146;2023-06-26T01:57:28;9.85;;;4.60;;
24644;SDS011;12780;45.502;9.146;2023-06-26T01:59:55;7.68;;;3.75;;
24644;SDS011;12780;45.502;9.146;2023-06-26T02:02:25;7.68;;;4.40;;
24644;SDS011;12780;45.502;9.146;2023-06-26T02:04:51;10.68;;;4.45;;
24644;SDS011;12780;45.502;9.146;2023-06-26T02:07:17;7.60;;;4.97;;
24644;SDS011;12780;45.502;9.146;2023-06-26T02:09:43;7.85;;;4.18;;
24644;SDS011;12780;45.502;9.146;2023-06-26T02:12:09;10.88;;;4.47;;
24644;SDS011;12780;45.502;9.146;2023-06-26T02:14:35;9.63;;;4.57;;
24644;SDS011;12780;45.502;9.146;2023-06-26T02:17:01;10.60;;;4.53;;
24644;SDS011;12780;45.502;9.146;2023-06-26T02:19:27;8.10;;;4.45;;
24644;SDS011;12780;45.502;9.146;2023-06-26T02:21:54;8.07;;;4.47;;
24644;SDS011;12780;45.502;9.146;2023-06-26T02:24:20;10.48;;;4.25;;
24644;SDS011;12780;45.502;9.146;2023-06-26T02:26:46;5.95;;;3.92;;
24644;SDS011;12780;45.502;9.146;2023-06-26T02:29:14;9.50;;;4.50;;
24644;SDS011;12780;45.502;9.146;2023-06-26T02:31:40;8.32;;;4.20;;
24644;SDS011;12780;45.502;9.146;2023-06-26T02:34:06;5.93;;;3.72;;
24644;SDS011;12780;45.502;9.146;2023-06-26T02:36:32;8.10;;;3.85;;
24644;SDS011;12780;45.502;9.146;2023-06-26T02:38:58;8.98;;;4.20;;
24644;SDS011;12780;45.502;9.146;2023-06-26T02:41:24;7.88;;;4.15;;
24644;SDS011;12780;45.502;9.146;2023-06-26T02:43:50;8.35;;;4.18;;
24644;SDS011;12780;45.502;9.146;2023-06-26T02:46:16;9.98;;;4.65;;
24644;SDS011;12780;45.502;9.146;2023-06-26T02:48:42;7.93;;;3.97;;
24644;SDS011;12780;45.502;9.146;2023-06-26T02:51:08;7.75;;;4.25;;
24644;SDS011;12780;45.502;9.146;2023-06-26T02:53:34;9.23;;;4.00;;
24644;SDS011;12780;45.502;9.146;2023-06-26T02:56:00;8.00;;;4.55;;
24644;SDS011;12780;45.502;9.146;2023-06-26T02:58:27;10.50;;;4.47;;
24644;SDS011;12780;45.502;9.146;2023-06-26T03:00:53;9.80;;;4.25;;
24644;SDS011;12780;45.502;9.146;2023-06-26T03:03:19;7.60;;;4.40;;
24644;SDS011;12780;45.502;9.146;2023-06-26T03:05:45;10.85;;;4.57;;
24644;SDS011;12780;45.502;9.146;2023-06-26T03:08:11;5.85;;;4.55;;
24644;SDS011;12780;45.502;9.146;2023-06-26T03:10:37;5.85;;;3.88;;
24644;SDS011;12780;45.502;9.146;2023-06-26T03:13:03;11.27;;;4.32;;
24644;SDS011;12780;45.502;9.146;2023-06-26T03:15:29;7.90;;;4.80;;
24644;SDS011;12780;45.502;9.146;2023-06-26T03:17:55;7.35;;;4.63;;
24644;SDS011;12780;45.502;9.146;2023-06-26T03:20:21;8.00;;;4.15;;
24644;SDS011;12780;45.502;9.146;2023-06-26T03:22:47;9.63;;;4.28;;
24644;SDS011;12780;45.502;9.146;2023-06-26T03:25:13;6.40;;;4.22;;
24644;SDS011;12780;45.502;9.146;2023-06-26T03:27:39;7.38;;;4.07;;
24644;SDS011;12780;45.502;9.146;2023-06-26T03:30:05;11.05;;;4.90;;
24644;SDS011;12780;45.502;9.146;2023-06-26T03:32:32;7.78;;;4.20;;
24644;SDS011;12780;45.502;9.146;2023-06-26T03:34:58;8.80;;;4.43;;
24644;SDS011;12780;45.502;9.146;2023-06-26T03:37:24;9.85;;;5.20;;
24644;SDS011;12780;45.502;9.146;2023-06-26T03:39:50;9.48;;;4.57;;
24644;SDS011;12780;45.502;9.146;2023-06-26T03:42:16;8.10;;;4.25;;
24644;SDS011;12780;45.502;9.146;2023-06-26T03:44:42;8.57;;;4.97;;
24644;SDS011;12780;45.502;9.146;2023-06-26T03:47:08;6.75;;;4.75;;
24644;SDS011;12780;45.502;9.146;2023-06-26T03:49:34;7.22;;;4.60;;
24644;SDS011;12780;45.502;9.146;2023-06-26T03:52:00;7.75;;;4.28;;
24644;SDS011;12780;45.502;9.146;2023-06-26T03:54:26;6.15;;;4.25;;
24644;SDS011;12780;45.502;9.146;2023-06-26T03:56:52;7.15;;;4.65;;
24644;SDS011;12780;45.502;9.146;2023-06-26T03:59:18;10.70;;;4.72;;
24644;SDS011;12780;45.502;9.146;2023-06-26T04:01:44;10.98;;;4.55;;
24644;SDS011;12780;45.502;9.146;2023-06-26T04:04:10;9.02;;;4.88;;
24644;SDS011;12780;45.502;9.146;2023-06-26T04:06:36;8.95;;;4.63;;
24644;SDS011;12780;45.502;9.146;2023-06-26T04:09:02;11.63;;;4.88;;
24644;SDS011;12780;45.502;9.146;2023-06-26T04:11:29;9.02;;;4.60;;
24644;SDS011;12780;45.502;9.146;2023-06-26T04:13:56;8.85;;;4.40;;
24644;SDS011;12780;45.502;9.146;2023-06-26T04:16:22;8.15;;;5.25;;
24644;SDS011;12780;45.502;9.146;2023-06-26T04:18:50;8.52;;;4.65;;
24644;SDS011;12780;45.502;9.146;2023-06-26T04:21:16;11.73;;;4.78;;
24644;SDS011;12780;45.502;9.146;2023-06-26T04:23:42;9.07;;;5.05;;
24644;SDS011;12780;45.502;9.146;2023-06-26T04:26:08;15.63;;;4.93;;
24644;SDS011;12780;45.502;9.146;2023-06-26T04:28:39;8.35;;;4.70;;
24644;SDS011;12780;45.502;9.146;2023-06-26T04:31:05;11.88;;;4.80;;
24644;SDS011;12780;45.502;9.146;2023-06-26T04:33:31;6.35;;;4.63;;
24644;SDS011;12780;45.502;9.146;2023-06-26T04:35:57;13.52;;;4.18;;
24644;SDS011;12780;45.502;9.146;2023-06-26T04:38:24;9.95;;;4.75;;
24644;SDS011;12780;45.502;9.146;2023-06-26T04:40:50;8.05;;;4.72;;
24644;SDS011;12780;45.502;9.146;2023-06-26T04:43:16;10.68;;;5.15;;
24644;SDS011;12780;45.502;9.146;2023-06-26T04:45:42;9.65;;;5.00;;
24644;SDS011;12780;45.502;9.146;2023-06-26T04:48:08;14.85;;;4.75;;
24644;SDS011;12780;45.502;9.146;2023-06-26T04:50:34;19.17;;;5.22;;
24644;SDS011;12780;45.502;9.146;2023-06-26T04:53:00;12.02;;;4.88;;
24644;SDS011;12780;45.502;9.146;2023-06-26T04:55:27;9.45;;;4.70;;
24644;SDS011;12780;45.502;9.146;2023-06-26T04:57:53;9.15;;;5.20;;
24644;SDS011;12780;45.502;9.146;2023-06-26T05:00:19;14.10;;;5.00;;
24644;SDS011;12780;45.502;9.146;2023-06-26T05:02:45;8.85;;;5.10;;
24644;SDS011;12780;45.502;9.146;2023-06-26T05:05:11;12.38;;;5.10;;
24644;SDS011;12780;45.502;9.146;2023-06-26T05:07:38;12.85;;;5.40;;
24644;SDS011;12780;45.502;9.146;2023-06-26T05:10:04;18.27;;;4.93;;
24644;SDS011;12780;45.502;9.146;2023-06-26T05:12:31;11.18;;;5.80;;
24644;SDS011;12780;45.502;9.146;2023-06-26T05:14:57;12.10;;;4.93;;
24644;SDS011;12780;45.502;9.146;2023-06-26T05:17:23;11.85;;;5.18;;
24644;SDS011;12780;45.502;9.146;2023-06-26T05:19:49;10.70;;;5.22;;
24644;SDS011;12780;45.502;9.146;2023-06-26T05:22:15;7.35;;;4.80;;
24644;SDS011;12780;45.502;9.146;2023-06-26T05:24:42;11.20;;;4.78;;
24644;SDS011;12780;45.502;9.146;2023-06-26T05:27:12;14.88;;;5.32;;
24644;SDS011;12780;45.502;9.146;2023-06-26T05:29:46;12.15;;;5.30;;
24644;SDS011;12780;45.502;9.146;2023-06-26T05:32:12;10.48;;;4.85;;
24644;SDS011;12780;45.502;9.146;2023-06-26T05:34:40;10.27;;;5.28;;
24644;SDS011;12780;45.502;9.146;2023-06-26T05:37:07;7.80;;;5.15;;
24644;SDS011;12780;45.502;9.146;2023-06-26T05:39:33;13.27;;;5.15;;
24644;SDS011;12780;45.502;9.146;2023-06-26T05:41:59;8.48;;;5.10;;
24644;SDS011;12780;45.502;9.146;2023-06-26T05:44:25;10.75;;;5.22;;
24644;SDS011;12780;45.502;9.146;2023-06-26T05:46:51;10.52;;;5.15;;
24644;SDS011;12780;45.502;9.146;2023-06-26T05:49:17;16.40;;;5.70;;
24644;SDS011;12780;45.502;9.146;2023-06-26T05:51:43;8.32;;;4.95;;
24644;SDS011;12780;45.502;9.146;2023-06-26T05:54:10;14.32;;;5.20;;
24644;SDS011;12780;45.502;9.146;2023-06-26T05:56:38;10.18;;;5.22;;
24644;SDS011;12780;45.502;9.146;2023-06-26T05:59:04;11.88;;;5.13;;
24644;SDS011;12780;45.502;9.146;2023-06-26T06:01:31;9.02;;;4.78;;
24644;SDS011;12780;45.502;9.146;2023-06-26T06:03:58;10.70;;;5.15;;
24644;SDS011;12780;45.502;9.146;2023-06-26T06:06:24;13.43;;;5.07;;
24644;SDS011;12780;45.502;9.146;2023-06-26T06:08:50;8.75;;;4.75;;
24644;SDS011;12780;45.502;9.146;2023-06-26T06:11:16;13.60;;;4.80;;
24644;SDS011;12780;45.502;9.146;2023-06-26T06:13:42;14.20;;;4.50;;
24644;SDS011;12780;45.502;9.146;2023-06-26T06:16:08;15.82;;;4.55;;
24644;SDS011;12780;45.502;9.146;2023-06-26T06:18:34;7.55;;;4.43;;
24644;SDS011;12780;45.502;9.146;2023-06-26T06:21:00;8.98;;;4.32;;
24644;SDS011;12780;45.502;9.146;2023-06-26T06:23:27;8.27;;;4.20;;
24644;SDS011;12780;45.502;9.146;2023-06-26T06:25:53;11.30;;;4.68;;
24644;SDS011;12780;45.502;9.146;2023-06-26T06:28:19;13.32;;;4.90;;
24644;SDS011;12780;45.502;9.146;2023-06-26T06:30:45;7.20;;;4.30;;
24644;SDS011;12780;45.502;9.146;2023-06-26T06:33:12;10.20;;;4.72;;
24644;SDS011;12780;45.502;9.146;2023-06-26T06:35:38;10.88;;;4.68;;
24644;SDS011;12780;45.502;9.146;2023-06-26T06:38:04;11.63;;;4.53;;
24644;SDS011;12780;45.502;9.146;2023-06-26T06:40:30;9.90;;;4.45;;
24644;SDS011;12780;45.502;9.146;2023-06-26T06:42:56;10.93;;;4.55;;
24644;SDS011;12780;45.502;9.146;2023-06-26T06:45:22;11.77;;;5.57;;
24644;SDS011;12780;45.502;9.146;2023-06-26T06:47:48;15.07;;;4.65;;
24644;SDS011;12780;45.502;9.146;2023-06-26T06:50:14;12.52;;;4.63;;
24644;SDS011;12780;45.502;9.146;2023-06-26T06:52:42;11.70;;;4.43;;
24644;SDS011;12780;45.502;9.146;2023-06-26T06:55:08;10.95;;;4.60;;
24644;SDS011;12780;45.502;9.146;2023-06-26T06:57:37;11.43;;;4.25;;
24644;SDS011;12780;45.502;9.146;2023-06-26T07:00:04;11.77;;;4.95;;
24644;SDS011;12780;45.502;9.146;2023-06-26T07:02:33;11.43;;;4.30;;
24644;SDS011;12780;45.502;9.146;2023-06-26T07:04:59;6.65;;;4.65;;
24644;SDS011;12780;45.502;9.146;2023-06-26T07:07:28;10.98;;;4.55;;
24644;SDS011;12780;45.502;9.146;2023-06-26T07:09:55;8.05;;;4.55;;
24644;SDS011;12780;45.502;9.146;2023-06-26T07:12:21;14.98;;;4.82;;
24644;SDS011;12780;45.502;9.146;2023-06-26T07:14:47;12.15;;;4.60;;
24644;SDS011;12780;45.502;9.146;2023-06-26T07:17:13;14.05;;;5.15;;
24644;SDS011;12780;45.502;9.146;2023-06-26T07:19:39;9.98;;;4.43;;
24644;SDS011;12780;45.502;9.146;2023-06-26T07:22:05;13.73;;;4.30;;
24644;SDS011;12780;45.502;9.146;2023-06-26T07:24:31;13.80;;;4.90;;
24644;SDS011;12780;45.502;9.146;2023-06-26T07:26:57;11.23;;;4.70;;
24644;SDS011;12780;45.502;9.146;2023-06-26T07:29:23;11.20;;;4.90;;
24644;SDS011;12780;45.502;9.146;2023-06-26T07:31:49;10.23;;;5.00;;
24644;SDS011;12780;45.502;9.146;2023-06-26T07:34:15;14.30;;;5.80;;
24644;SDS011;12780;45.502;9.146;2023-06-26T07:36:41;11.63;;;5.07;;
24644;SDS011;12780;45.502;9.146;2023-06-26T07:39:07;11.02;;;5.05;;
24644;SDS011;12780;45.502;9.146;2023-06-26T07:41:33;12.75;;;4.85;;
24644;SDS011;12780;45.502;9.146;2023-06-26T07:44:00;20.05;;;5.13;;
24644;SDS011;12780;45.502;9.146;2023-06-26T07:46:26;10.60;;;5.00;;
24644;SDS011;12780;45.502;9.146;2023-06-26T07:48:53;13.82;;;5.22;;
24644;SDS011;12780;45.502;9.146;2023-06-26T07:51:19;12.40;;;4.75;;
24644;SDS011;12780;45.502;9.146;2023-06-26T07:53:46;12.93;;;4.88;;
24644;SDS011;12780;45.502;9.146;2023-06-26T07:56:12;14.07;;;5.00;;
24644;SDS011;12780;45.502;9.146;2023-06-26T07:58:38;9.57;;;4.85;;
24644;SDS011;12780;45.502;9.146;2023-06-26T08:01:04;16.83;;;4.60;;
24644;SDS011;12780;45.502;9.146;2023-06-26T08:03:30;10.63;;;5.00;;
24644;SDS011;12780;45.502;9.146;2023-06-26T08:05:56;14.75;;;5.18;;
24644;SDS011;12780;45.502;9.146;2023-06-26T08:08:22;9.00;;;4.72;;
24644;SDS011;12780;45.502;9.146;2023-06-26T08:10:48;11.63;;;5.30;;
24644;SDS011;12780;45.502;9.146;2023-06-26T08:13:14;12.80;;;5.10;;
24644;SDS011;12780;45.502;9.146;2023-06-26T08:15:40;14.27;;;4.70;;
24644;SDS011;12780;45.502;9.146;2023-06-26T08:18:06;13.77;;;4.65;;
24644;SDS011;12780;45.502;9.146;2023-06-26T08:20:32;13.23;;;5.38;;
24644;SDS011;12780;45.502;9.146;2023-06-26T08:23:00;12.90;;;5.18;;
24644;SDS011;12780;45.502;9.146;2023-06-26T08:25:26;10.23;;;4.70;;
24644;SDS011;12780;45.502;9.146;2023-06-26T08:27:52;12.25;;;4.53;;
24644;SDS011;12780;45.502;9.146;2023-06-26T08:30:19;11.38;;;4.57;;
24644;SDS011;12780;45.502;9.146;2023-06-26T08:32:45;10.05;;;5.07;;
24644;SDS011;12780;45.502;9.146;2023-06-26T08:35:11;9.02;;;4.70;;
24644;SDS011;12780;45.502;9.146;2023-06-26T08:37:37;15.10;;;5.30;;
24644;SDS011;12780;45.502;9.146;2023-06-26T08:40:03;12.93;;;4.85;;
24644;SDS011;12780;45.502;9.146;2023-06-26T08:42:29;6.65;;;4.63;;
24644;SDS011;12780;45.502;9.146;2023-06-26T08:44:55;11.35;;;5.25;;
24644;SDS011;12780;45.502;9.146;2023-06-26T08:47:21;8.20;;;5.00;;
24644;SDS011;12780;45.502;9.146;2023-06-26T08:50:01;16.33;;;5.25;;
24644;SDS011;12780;45.502;9.146;2023-06-26T08:55:16;12.75;;;6.22;;
24644;SDS011;12780;45.502;9.146;2023-06-26T08:57:42;9.75;;;4.68;;
24644;SDS011;12780;45.502;9.146;2023-06-26T09:00:08;9.50;;;4.28;;
24644;SDS011;12780;45.502;9.146;2023-06-26T09:02:35;10.95;;;4.70;;
24644;SDS011;12780;45.502;9.146;2023-06-26T09:05:02;9.35;;;4.85;;
24644;SDS011;12780;45.502;9.146;2023-06-26T09:07:28;11.23;;;4.55;;
24644;SDS011;12780;45.502;9.146;2023-06-26T09:09:54;12.77;;;4.95;;
24644;SDS011;12780;45.502;9.146;2023-06-26T09:12:20;10.90;;;5.00;;
24644;SDS011;12780;45.502;9.146;2023-06-26T09:14:47;16.80;;;5.20;;
24644;SDS011;12780;45.502;9.146;2023-06-26T09:17:13;10.98;;;5.05;;
24644;SDS011;12780;45.502;9.146;2023-06-26T09:19:39;13.38;;;5.10;;
24644;SDS011;12780;45.502;9.146;2023-06-26T09:22:10;18.50;;;5.15;;
24644;SDS011;12780;45.502;9.146;2023-06-26T09:24:37;8.98;;;5.55;;
24644;SDS011;12780;45.502;9.146;2023-06-26T09:27:03;15.05;;;6.05;;
24644;SDS011;12780;45.502;9.146;2023-06-26T09:29:29;9.07;;;4.63;;
24644;SDS011;12780;45.502;9.146;2023-06-26T09:31:56;11.45;;;4.78;;
24644;SDS011;12780;45.502;9.146;2023-06-26T09:34:28;12.32;;;5.82;;
24644;SDS011;12780;45.502;9.146;2023-06-26T09:39:21;16.25;;;5.00;;
24644;SDS011;12780;45.502;9.146;2023-06-26T09:41:47;12.98;;;5.70;;
24644;SDS011;12780;45.502;9.146;2023-06-26T09:44:13;12.52;;;5.55;;
24644;SDS011;12780;45.502;9.146;2023-06-26T09:46:40;13.73;;;6.15;;
24644;SDS011;12780;45.502;9.146;2023-06-26T09:49:09;13.38;;;6.25;;
24644;SDS011;12780;45.502;9.146;2023-06-26T09:51:36;13.93;;;5.82;;
24644;SDS011;12780;45.502;9.146;2023-06-26T09:54:03;10.63;;;6.05;;
24644;SDS011;12780;45.502;9.146;2023-06-26T09:56:29;13.55;;;6.60;;
24644;SDS011;12780;45.502;9.146;2023-06-26T09:58:56;14.82;;;6.70;;
24644;SDS011;12780;45.502;9.146;2023-06-26T10:01:26;14.07;;;5.78;;
24644;SDS011;12780;45.502;9.146;2023-06-26T10:03:53;21.80;;;7.13;;
24644;SDS011;12780;45.502;9.146;2023-06-26T10:06:31;17.20;;;5.60;;
24644;SDS011;12780;45.502;9.146;2023-06-26T10:08:58;9.57;;;6.03;;
24644;SDS011;12780;45.502;9.146;2023-06-26T10:11:25;25.65;;;8.40;;
24644;SDS011;12780;45.502;9.146;2023-06-26T10:13:55;12.00;;;6.10;;
24644;SDS011;12780;45.502;9.146;2023-06-26T10:16:23;11.07;;;6.95;;
24644;SDS011;12780;45.502;9.146;2023-06-26T10:18:50;11.73;;;6.38;;
24644;SDS011;12780;45.502;9.146;2023-06-26T10:21:20;13.90;;;6.35;;
24644;SDS011;12780;45.502;9.146;2023-06-26T10:23:46;14.20;;;5.78;;
24644;SDS011;12780;45.502;9.146;2023-06-26T10:26:12;10.75;;;5.75;;
24644;SDS011;12780;45.502;9.146;2023-06-26T10:28:39;14.80;;;6.95;;
24644;SDS011;12780;45.502;9.146;2023-06-26T10:31:07;11.52;;;6.53;;
24644;SDS011;12780;45.502;9.146;2023-06-26T10:33:35;12.60;;;6.07;;
24644;SDS011;12780;45.502;9.146;2023-06-26T10:36:13;17.92;;;6.78;;
24644;SDS011;12780;45.502;9.146;2023-06-26T10:39:03;17.15;;;5.80;;
24644;SDS011;12780;45.502;9.146;2023-06-26T10:41:26;10.75;;;6.57;;
24644;SDS011;12780;45.502;9.146;2023-06-26T10:46:24;9.75;;;6.30;;
24644;SDS011;12780;45.502;9.146;2023-06-26T10:48:57;9.30;;;5.97;;
24644;SDS011;12780;45.502;9.146;2023-06-26T10:51:27;10.52;;;5.88;;
24644;SDS011;12780;45.502;9.146;2023-06-26T10:53:53;14.77;;;7.00;;
24644;SDS011;12780;45.502;9.146;2023-06-26T10:56:19;13.10;;;6.13;;
24644;SDS011;12780;45.502;9.146;2023-06-26T10:58:47;13.40;;;6.68;;
24644;SDS011;12780;45.502;9.146;2023-06-26T11:01:20;13.45;;;6.15;;
24644;SDS011;12780;45.502;9.146;2023-06-26T11:06:26;7.95;;;5.53;;
24644;SDS011;12780;45.502;9.146;2023-06-26T11:08:53;9.40;;;5.63;;
24644;SDS011;12780;45.502;9.146;2023-06-26T11:11:20;9.80;;;5.70;;
24644;SDS011;12780;45.502;9.146;2023-06-26T11:13:46;11.73;;;5.68;;
24644;SDS011;12780;45.502;9.146;2023-06-26T11:16:13;12.00;;;5.65;;
24644;SDS011;12780;45.502;9.146;2023-06-26T11:18:42;9.77;;;5.70;;
24644;SDS011;12780;45.502;9.146;2023-06-26T11:21:08;11.88;;;5.65;;
24644;SDS011;12780;45.502;9.146;2023-06-26T11:23:36;12.15;;;6.90;;
24644;SDS011;12780;45.502;9.146;2023-06-26T11:26:21;8.55;;;5.80;;
24644;SDS011;12780;45.502;9.146;2023-06-26T11:28:53;10.20;;;6.22;;
24644;SDS011;12780;45.502;9.146;2023-06-26T11:31:32;10.93;;;5.72;;
24644;SDS011;12780;45.502;9.146;2023-06-26T11:34:01;21.95;;;6.30;;
24644;SDS011;12780;45.502;9.146;2023-06-26T11:36:28;15.15;;;6.13;;
24644;SDS011;12780;45.502;9.146;2023-06-26T11:38:55;12.57;;;6.82;;
24644;SDS011;12780;45.502;9.146;2023-06-26T11:41:21;11.77;;;6.18;;
24644;SDS011;12780;45.502;9.146;2023-06-26T11:43:47;12.07;;;5.95;;
24644;SDS011;12780;45.502;9.146;2023-06-26T11:46:16;11.95;;;6.20;;
24644;SDS011;12780;45.502;9.146;2023-06-26T11:48:42;13.07;;;5.72;;
24644;SDS011;12780;45.502;9.146;2023-06-26T11:51:08;9.30;;;5.25;;
24644;SDS011;12780;45.502;9.146;2023-06-26T11:53:39;11.80;;;5.60;;
24644;SDS011;12780;45.502;9.146;2023-06-26T11:56:12;9.10;;;5.40;;
24644;SDS011;12780;45.502;9.146;2023-06-26T12:01:24;12.65;;;5.32;;
24644;SDS011;12780;45.502;9.146;2023-06-26T12:03:50;12.88;;;6.55;;
24644;SDS011;12780;45.502;9.146;2023-06-26T12:06:16;7.60;;;5.30;;
24644;SDS011;12780;45.502;9.146;2023-06-26T12:08:42;9.23;;;5.50;;
24644;SDS011;12780;45.502;9.146;2023-06-26T12:11:09;13.23;;;5.68;;
24644;SDS011;12780;45.502;9.146;2023-06-26T12:13:35;11.35;;;5.68;;
24644;SDS011;12780;45.502;9.146;2023-06-26T12:16:01;12.02;;;5.50;;
24644;SDS011;12780;45.502;9.146;2023-06-26T12:18:33;8.50;;;5.97;;
24644;SDS011;12780;45.502;9.146;2023-06-26T12:20:59;12.30;;;5.25;;
24644;SDS011;12780;45.502;9.146;2023-06-26T12:23:31;7.70;;;5.63;;
24644;SDS011;12780;45.502;9.146;2023-06-26T12:25:57;8.38;;;5.20;;
24644;SDS011;12780;45.502;9.146;2023-06-26T12:28:23;7.90;;;4.97;;
24644;SDS011;12780;45.502;9.146;2023-06-26T12:33:36;10.43;;;5.35;;
24644;SDS011;12780;45.502;9.146;2023-06-26T12:36:02;9.18;;;5.32;;
24644;SDS011;12780;45.502;9.146;2023-06-26T12:38:34;8.65;;;5.40;;
24644;SDS011;12780;45.502;9.146;2023-06-26T12:41:01;11.77;;;5.50;;
24644;SDS011;12780;45.502;9.146;2023-06-26T12:43:27;11.80;;;5.65;;
24644;SDS011;12780;45.502;9.146;2023-06-26T12:45:54;9.75;;;6.10;;
24644;SDS011;12780;45.502;9.146;2023-06-26T12:48:20;9.95;;;5.63;;
24644;SDS011;12780;45.502;9.146;2023-06-26T12:50:46;12.90;;;5.85;;
24644;SDS011;12780;45.502;9.146;2023-06-26T12:53:15;11.30;;;5.60;;
24644;SDS011;12780;45.502;9.146;2023-06-26T12:55:42;15.65;;;5.22;;
24644;SDS011;12780;45.502;9.146;2023-06-26T12:58:08;10.52;;;4.97;;
24644;SDS011;12780;45.502;9.146;2023-06-26T13:00:34;15.00;;;5.63;;
24644;SDS011;12780;45.502;9.146;2023-06-26T13:03:00;6.88;;;4.70;;
24644;SDS011;12780;45.502;9.146;2023-06-26T13:05:26;13.25;;;5.10;;
24644;SDS011;12780;45.502;9.146;2023-06-26T13:07:52;9.07;;;5.10;;
24644;SDS011;12780;45.502;9.146;2023-06-26T13:10:18;11.93;;;5.28;;
24644;SDS011;12780;45.502;9.146;2023-06-26T13:12:44;11.05;;;4.68;;
24644;SDS011;12780;45.502;9.146;2023-06-26T13:15:10;11.35;;;4.82;;
24644;SDS011;12780;45.502;9.146;2023-06-26T13:17:36;15.57;;;4.90;;
24644;SDS011;12780;45.502;9.146;2023-06-26T13:20:02;10.75;;;5.30;;
24644;SDS011;12780;45.502;9.146;2023-06-26T13:22:30;8.32;;;4.72;;
24644;SDS011;12780;45.502;9.146;2023-06-26T13:24:55;6.53;;;4.70;;
24644;SDS011;12780;45.502;9.146;2023-06-26T13:27:22;8.10;;;5.25;;
24644;SDS011;12780;45.502;9.146;2023-06-26T13:29:48;8.65;;;5.10;;
24644;SDS011;12780;45.502;9.146;2023-06-26T13:32:14;7.95;;;5.70;;
24644;SDS011;12780;45.502;9.146;2023-06-26T13:34:40;15.93;;;5.55;;
24644;SDS011;12780;45.502;9.146;2023-06-26T13:37:06;10.68;;;5.63;;
24644;SDS011;12780;45.502;9.146;2023-06-26T13:39:32;9.73;;;4.78;;
24644;SDS011;12780;45.502;9.146;2023-06-26T13:41:58;9.35;;;5.35;;
24644;SDS011;12780;45.502;9.146;2023-06-26T13:44:25;7.30;;;4.90;;
24644;SDS011;12780;45.502;9.146;2023-06-26T13:46:51;7.55;;;5.47;;
24644;SDS011;12780;45.502;9.146;2023-06-26T13:49:18;12.70;;;5.22;;
24644;SDS011;12780;45.502;9.146;2023-06-26T13:51:44;8.63;;;4.80;;
24644;SDS011;12780;45.502;9.146;2023-06-26T13:54:12;9.27;;;5.07;;
24644;SDS011;12780;45.502;9.146;2023-06-26T13:56:38;8.02;;;5.53;;
24644;SDS011;12780;45.502;9.146;2023-06-26T13:59:04;12.85;;;5.30;;
24644;SDS011;12780;45.502;9.146;2023-06-26T14:01:30;8.57;;;5.10;;
24644;SDS011;12780;45.502;9.146;2023-06-26T14:03:57;8.80;;;4.97;;
24644;SDS011;12780;45.502;9.146;2023-06-26T14:06:23;7.20;;;4.97;;
24644;SDS011;12780;45.502;9.146;2023-06-26T14:08:49;14.48;;;5.10;;
24644;SDS011;12780;45.502;9.146;2023-06-26T14:11:17;10.40;;;5.30;;
24644;SDS011;12780;45.502;9.146;2023-06-26T14:13:43;10.95;;;5.30;;
24644;SDS011;12780;45.502;9.146;2023-06-26T14:16:10;9.63;;;5.25;;
24644;SDS011;12780;45.502;9.146;2023-06-26T14:18:37;8.15;;;5.30;;
24644;SDS011;12780;45.502;9.146;2023-06-26T14:21:03;10.20;;;5.88;;
24644;SDS011;12780;45.502;9.146;2023-06-26T14:23:29;11.70;;;5.00;;
24644;SDS011;12780;45.502;9.146;2023-06-26T14:25:55;7.15;;;5.05;;
24644;SDS011;12780;45.502;9.146;2023-06-26T14:28:21;8.60;;;4.75;;
24644;SDS011;12780;45.502;9.146;2023-06-26T14:30:47;9.00;;;5.50;;
24644;SDS011;12780;45.502;9.146;2023-06-26T14:33:13;6.93;;;5.22;;
24644;SDS011;12780;45.502;9.146;2023-06-26T14:35:39;12.13;;;5.60;;
24644;SDS011;12780;45.502;9.146;2023-06-26T14:38:05;10.88;;;5.40;;
24644;SDS011;12780;45.502;9.146;2023-06-26T14:40:31;9.55;;;4.97;;
24644;SDS011;12780;45.502;9.146;2023-06-26T14:42:57;11.55;;;5.45;;
24644;SDS011;12780;45.502;9.146;2023-06-26T14:45:23;9.25;;;5.57;;
24644;SDS011;12780;45.502;9.146;2023-06-26T14:47:50;9.77;;;5.38;;
24644;SDS011;12780;45.502;9.146;2023-06-26T14:50:16;8.40;;;5.35;;
24644;SDS011;12780;45.502;9.146;2023-06-26T14:52:42;7.70;;;5.40;;
24644;SDS011;12780;45.502;9.146;2023-06-26T14:55:08;9.45;;;5.15;;
24644;SDS011;12780;45.502;9.146;2023-06-26T14:57:34;6.25;;;5.13;;
24644;SDS011;12780;45.502;9.146;2023-06-26T15:00:00;12.27;;;5.50;;